Time;durP1;ratioP1;P1;durP2;ratioP2;P2;SDS_P1;SDS_P2;PMS_P1;PMS_P2;Temp;Humidity;BMP_temperature;BMP_pressure;BME280_temperature;BME280_humidity;BME280_pressure;Samples;Min_cycle;Max_cycle;Signal;HPM_P1;HPM_P2
2022/10/02 00:00:06;;;;;;;26.30;7.78;;;13.70;99.90;;;;;;2095356;28;20062;-70
2022/10/02 00:01:37;;;;;;;20.35;7.18;;;13.70;99.90;;;;;;2096312;28;20025;-71
2022/10/02 00:02:55;;;;;;;22.98;8.15;;;13.70;99.90;;;;;;2090513;28;20020;-70
2022/10/02 00:03:57;;;;;;;20.25;7.22;;;13.70;99.90;;;;;;2091313;28;20153;-70
2022/10/02 00:05:13;;;;;;;22.55;7.13;;;13.70;99.90;;;;;;2092842;28;20452;-70
2022/10/02 00:06:24;;;;;;;24.80;8.40;;;13.70;99.90;;;;;;2092567;28;20036;-71
2022/10/02 00:07:41;;;;;;;25.48;9.70;;;13.70;99.90;;;;;;2090837;28;20170;-70
2022/10/02 00:08:42;;;;;;;25.02;9.20;;;13.70;99.90;;;;;;2089946;28;20029;-70
2022/10/02 00:10:18;;;;;;;24.58;10.02;;;13.70;99.90;;;;;;2090493;28;20052;-70
2022/10/02 00:11:23;;;;;;;22.42;8.90;;;13.70;99.90;;;;;;2092080;28;20099;-70
2022/10/02 00:12:25;;;;;;;27.75;9.45;;;13.70;99.90;;;;;;2091125;28;20108;-70
2022/10/02 00:13:51;;;;;;;28.88;10.40;;;13.80;99.90;;;;;;2090538;28;20099;-70
2022/10/02 00:15:01;;;;;;;29.75;10.50;;;13.80;99.90;;;;;;2089705;28;20056;-70
2022/10/02 00:16:06;;;;;;;33.47;11.25;;;13.80;99.90;;;;;;2092142;28;20024;-70
2022/10/02 00:17:31;;;;;;;32.30;11.40;;;13.70;99.90;;;;;;2091166;28;20028;-70
2022/10/02 00:18:34;;;;;;;31.17;9.68;;;13.80;99.90;;;;;;2090032;28;20468;-71
2022/10/02 00:19:35;;;;;;;27.30;8.88;;;13.70;99.90;;;;;;2090940;28;20029;-70
2022/10/02 00:20:53;;;;;;;26.98;10.20;;;13.80;99.90;;;;;;2091175;28;20424;-70
2022/10/02 00:22:20;;;;;;;22.92;9.98;;;13.80;99.90;;;;;;2090543;28;20039;-70
2022/10/02 00:23:35;;;;;;;27.23;8.15;;;13.80;99.90;;;;;;2090686;28;20031;-70
2022/10/02 00:24:45;;;;;;;24.90;8.85;;;13.80;99.90;;;;;;2089664;28;20031;-70
2022/10/02 00:26:08;;;;;;;30.95;9.20;;;13.80;99.90;;;;;;2091343;28;20561;-70
2022/10/02 00:27:36;;;;;;;30.88;8.68;;;13.80;99.90;;;;;;2091561;28;20074;-71
2022/10/02 00:29:07;;;;;;;25.67;7.95;;;13.80;99.90;;;;;;2091757;28;20020;-70
2022/10/02 00:30:13;;;;;;;22.90;7.60;;;13.80;99.90;;;;;;2090092;28;20017;-71
2022/10/02 00:31:57;;;;;;;22.40;7.53;;;13.80;99.90;;;;;;2091098;28;20535;-70
2022/10/02 00:33:11;;;;;;;22.25;7.45;;;13.80;99.90;;;;;;2068597;28;20037;-70
2022/10/02 00:34:41;;;;;;;22.17;7.93;;;13.80;99.90;;;;;;2089787;28;20021;-70
2022/10/02 00:35:50;;;;;;;25.02;9.35;;;13.80;99.90;;;;;;2093683;28;20033;-70
2022/10/02 00:37:03;;;;;;;24.98;8.65;;;13.80;99.90;;;;;;2091279;28;20509;-70
2022/10/02 00:38:10;;;;;;;23.13;9.07;;;13.80;99.90;;;;;;2091777;28;21408;-70
2022/10/02 00:39:43;;;;;;;24.60;8.15;;;13.80;99.90;;;;;;2092117;28;20040;-70
2022/10/02 00:41:06;;;;;;;21.98;7.50;;;13.80;99.90;;;;;;2093335;28;20028;-70
2022/10/02 00:42:25;;;;;;;19.52;8.50;;;13.80;99.90;;;;;;2092981;28;20630;-70
2022/10/02 00:43:31;;;;;;;27.07;9.70;;;13.80;99.90;;;;;;2092726;28;20107;-70
2022/10/02 00:45:00;;;;;;;24.90;9.10;;;13.80;99.90;;;;;;2092701;28;20089;-70
2022/10/02 00:46:30;;;;;;;27.02;9.45;;;13.80;99.90;;;;;;2093452;28;20056;-70
2022/10/02 00:47:49;;;;;;;27.98;10.40;;;13.80;99.90;;;;;;2100232;28;20400;-70
2022/10/02 00:49:19;;;;;;;27.70;10.18;;;13.80;99.90;;;;;;2092580;28;20035;-70
2022/10/02 00:50:32;;;;;;;24.23;10.20;;;13.80;99.90;;;;;;2091362;28;20648;-70
2022/10/02 00:51:35;;;;;;;27.13;10.50;;;13.80;99.90;;;;;;2090223;28;20029;-70
2022/10/02 00:52:45;;;;;;;22.67;9.57;;;13.80;99.90;;;;;;2090206;28;20546;-70
2022/10/02 00:54:11;;;;;;;28.15;10.65;;;13.80;99.90;;;;;;2092753;28;20135;-70
2022/10/02 00:55:40;;;;;;;28.92;9.27;;;13.80;99.90;;;;;;2093103;28;20057;-70
2022/10/02 00:56:59;;;;;;;27.45;9.18;;;13.80;99.90;;;;;;2091781;28;20487;-70
2022/10/02 00:58:21;;;;;;;30.60;10.40;;;13.80;99.90;;;;;;2093243;28;20111;-70
2022/10/02 00:59:40;;;;;;;24.25;9.00;;;13.80;99.90;;;;;;2094185;28;20036;-70
2022/10/02 01:01:06;;;;;;;28.65;9.45;;;13.80;99.90;;;;;;2092850;28;20052;-70
2022/10/02 01:02:39;;;;;;;26.10;9.25;;;13.80;99.90;;;;;;2092699;28;20480;-70
2022/10/02 01:03:52;;;;;;;31.48;8.50;;;13.80;99.90;;;;;;2092401;28;20021;-70
2022/10/02 01:04:53;;;;;;;32.83;9.75;;;13.80;99.90;;;;;;2090646;28;20645;-70
2022/10/02 01:05:54;;;;;;;26.27;9.18;;;13.90;99.90;;;;;;2091658;28;20037;-70
2022/10/02 01:06:54;;;;;;;27.20;8.65;;;13.80;99.90;;;;;;2093017;28;20033;-70
2022/10/02 01:07:56;;;;;;;28.95;8.85;;;13.90;99.90;;;;;;2092392;28;20100;-72
2022/10/02 01:08:57;;;;;;;25.45;8.45;;;13.90;99.90;;;;;;2092281;28;20052;-70
2022/10/02 01:09:58;;;;;;;29.38;8.60;;;13.90;99.90;;;;;;2093667;28;20495;-71
2022/10/02 01:10:59;;;;;;;32.78;8.70;;;13.90;99.90;;;;;;2093017;28;20017;-70
2022/10/02 01:12:00;;;;;;;28.08;9.13;;;13.90;99.90;;;;;;2092111;28;20510;-70
2022/10/02 01:13:00;;;;;;;25.73;7.53;;;13.90;99.90;;;;;;2092172;28;20632;-70
2022/10/02 01:14:02;;;;;;;22.75;8.27;;;13.90;99.90;;;;;;2092245;28;20029;-70
2022/10/02 01:15:14;;;;;;;25.90;8.40;;;14.00;99.90;;;;;;2092320;28;20056;-71
2022/10/02 01:16:16;;;;;;;32.08;8.35;;;13.90;99.90;;;;;;2090300;28;20584;-71
2022/10/02 01:17:28;;;;;;;27.98;8.73;;;13.90;99.90;;;;;;2092293;28;20070;-70
2022/10/02 01:18:29;;;;;;;27.77;7.55;;;13.90;99.90;;;;;;2092691;28;20020;-70
2022/10/02 01:19:37;;;;;;;26.05;8.30;;;13.90;99.90;;;;;;2093362;28;20632;-70
2022/10/02 01:20:41;;;;;;;24.08;7.18;;;14.00;99.90;;;;;;2091096;28;20384;-70
2022/10/02 01:21:46;;;;;;;24.58;7.90;;;14.00;99.90;;;;;;2092681;28;20102;-70
2022/10/02 01:22:57;;;;;;;24.98;7.65;;;14.00;99.90;;;;;;2093828;28;20104;-71
2022/10/02 01:24:26;;;;;;;21.27;7.45;;;14.00;99.90;;;;;;2092638;28;20117;-70
2022/10/02 01:25:27;;;;;;;24.50;7.13;;;14.00;99.90;;;;;;2091462;28;20028;-70
2022/10/02 01:26:28;;;;;;;21.75;7.38;;;14.00;99.90;;;;;;2091051;28;20025;-70
2022/10/02 01:27:30;;;;;;;27.63;7.10;;;14.10;99.90;;;;;;2091837;28;20035;-70
2022/10/02 01:28:30;;;;;;;30.63;8.10;;;14.10;99.90;;;;;;2091483;28;20033;-70
2022/10/02 01:29:31;;;;;;;24.80;7.80;;;14.10;99.90;;;;;;2092083;28;20041;-70
2022/10/02 01:30:35;;;;;;;23.65;7.63;;;14.10;99.90;;;;;;2090747;28;20059;-70
2022/10/02 01:31:35;;;;;;;21.63;7.18;;;14.10;99.90;;;;;;2091187;28;20032;-71
2022/10/02 01:32:40;;;;;;;26.92;7.85;;;14.10;99.90;;;;;;2091198;28;20024;-71
2022/10/02 01:33:43;;;;;;;23.42;7.63;;;14.20;99.90;;;;;;2091126;28;20111;-71
2022/10/02 01:34:44;;;;;;;28.48;7.18;;;14.20;99.90;;;;;;2091659;28;20029;-70
2022/10/02 01:35:46;;;;;;;26.52;7.40;;;14.20;99.90;;;;;;2091768;28;20727;-70
2022/10/02 01:36:47;;;;;;;22.95;6.60;;;14.20;99.90;;;;;;2090784;28;20037;-70
2022/10/02 01:37:49;;;;;;;19.20;7.50;;;14.20;99.90;;;;;;2093622;28;20028;-70
2022/10/02 01:38:51;;;;;;;25.20;7.45;;;14.20;99.90;;;;;;2091551;28;20032;-70
2022/10/02 01:39:52;;;;;;;27.73;7.30;;;14.30;99.90;;;;;;2093626;28;20115;-70
2022/10/02 01:40:52;;;;;;;25.67;6.82;;;14.30;99.90;;;;;;2092192;28;20517;-70
2022/10/02 01:41:54;;;;;;;28.88;7.90;;;14.30;99.90;;;;;;2093294;28;20774;-70
2022/10/02 01:42:59;;;;;;;27.30;7.90;;;14.30;99.90;;;;;;2100530;28;20027;-70
2022/10/02 01:44:01;;;;;;;21.80;6.90;;;14.30;99.90;;;;;;2101136;28;20044;-70
2022/10/02 01:45:04;;;;;;;26.30;7.47;;;14.30;99.90;;;;;;2091928;28;20016;-70
2022/10/02 01:46:32;;;;;;;18.50;5.72;;;14.30;99.90;;;;;;2091659;28;20135;-70
2022/10/02 01:47:59;;;;;;;23.83;6.30;;;14.30;99.90;;;;;;2093018;28;20056;-70
2022/10/02 01:49:14;;;;;;;28.02;6.72;;;14.40;99.90;;;;;;2093027;28;20529;-70
2022/10/02 01:50:30;;;;;;;25.02;6.13;;;14.30;99.90;;;;;;2093552;28;20029;-70
2022/10/02 01:51:49;;;;;;;22.60;6.47;;;14.40;99.90;;;;;;2095781;28;20029;-70
2022/10/02 01:52:53;;;;;;;21.67;5.88;;;14.40;99.90;;;;;;2094417;28;20062;-70
2022/10/02 01:54:06;;;;;;;25.90;5.88;;;14.40;99.90;;;;;;2091660;28;20028;-70
2022/10/02 01:55:40;;;;;;;27.45;5.88;;;14.40;99.90;;;;;;2092113;28;20869;-70
2022/10/02 01:56:56;;;;;;;21.33;5.93;;;14.40;99.90;;;;;;2093220;28;20082;-70
2022/10/02 01:58:16;;;;;;;19.08;5.32;;;14.40;99.90;;;;;;2094360;28;20028;-70
2022/10/02 01:59:46;;;;;;;23.92;5.85;;;14.40;99.90;;;;;;2093902;28;20028;-70
2022/10/02 02:01:17;;;;;;;19.90;5.65;;;14.40;99.90;;;;;;2092286;28;20107;-70
2022/10/02 02:02:45;;;;;;;24.10;5.47;;;14.40;99.90;;;;;;2092110;28;20036;-70
2022/10/02 02:03:51;;;;;;;17.83;5.05;;;14.40;99.90;;;;;;2093216;28;20052;-70
2022/10/02 02:04:52;;;;;;;21.60;4.95;;;14.40;99.90;;;;;;2091501;28;20029;-70
2022/10/02 02:05:59;;;;;;;23.40;6.55;;;14.40;99.90;;;;;;2090083;28;20035;-70
2022/10/02 02:07:24;;;;;;;20.83;5.00;;;14.40;99.90;;;;;;2092531;28;20412;-70
2022/10/02 02:08:59;;;;;;;23.63;5.50;;;14.40;99.90;;;;;;2089319;28;20524;-70
2022/10/02 02:10:11;;;;;;;34.13;6.07;;;14.40;99.90;;;;;;2093233;28;20028;-70
2022/10/02 02:11:15;;;;;;;18.83;4.53;;;14.40;99.90;;;;;;2093664;28;20044;-71
2022/10/02 02:12:25;;;;;;;27.42;5.57;;;14.50;99.90;;;;;;2087404;28;20024;-70
2022/10/02 02:13:48;;;;;;;29.88;6.72;;;14.50;99.90;;;;;;2093479;28;20027;-70
2022/10/02 02:15:24;;;;;;;20.85;5.78;;;14.50;99.90;;;;;;2092515;28;20017;-70
2022/10/02 02:16:28;;;;;;;24.17;5.97;;;14.50;99.90;;;;;;2091431;28;20052;-70
2022/10/02 02:17:55;;;;;;;24.75;6.43;;;14.50;99.90;;;;;;2089770;28;20017;-70
2022/10/02 02:19:04;;;;;;;23.00;5.65;;;14.50;99.90;;;;;;2091464;28;20048;-70
2022/10/02 02:20:09;;;;;;;32.88;6.78;;;14.50;99.90;;;;;;2091525;28;20126;-70
2022/10/02 02:21:22;;;;;;;20.85;5.60;;;14.60;99.90;;;;;;2091104;28;20012;-70
2022/10/02 02:22:27;;;;;;;23.02;5.07;;;14.60;99.90;;;;;;2093125;28;20102;-70
2022/10/02 02:23:33;;;;;;;29.48;5.75;;;14.60;99.90;;;;;;2092725;28;20027;-70
2022/10/02 02:24:51;;;;;;;17.83;5.00;;;14.60;99.90;;;;;;2091590;28;20017;-70
2022/10/02 02:25:58;;;;;;;29.40;5.35;;;14.60;99.90;;;;;;2089276;28;20025;-70
2022/10/02 02:27:02;;;;;;;20.15;5.57;;;14.60;99.90;;;;;;2090884;28;20043;-70
2022/10/02 02:28:08;;;;;;;23.80;5.43;;;14.70;99.90;;;;;;2090623;28;20028;-70
2022/10/02 02:29:09;;;;;;;23.05;6.00;;;14.70;99.90;;;;;;2092997;28;20062;-70
2022/10/02 02:30:12;;;;;;;23.40;5.07;;;14.70;99.90;;;;;;2092322;28;20515;-70
2022/10/02 02:31:19;;;;;;;28.80;6.05;;;14.70;99.90;;;;;;2091256;28;20517;-70
2022/10/02 02:32:30;;;;;;;24.48;5.63;;;14.70;99.90;;;;;;2091672;28;20021;-70
2022/10/02 02:33:41;;;;;;;24.75;5.47;;;14.70;99.90;;;;;;2090851;28;20035;-70
2022/10/02 02:34:51;;;;;;;21.30;5.68;;;14.70;99.90;;;;;;2090952;28;20036;-70
2022/10/02 02:35:55;;;;;;;21.85;4.85;;;14.80;99.90;;;;;;2091181;28;20099;-70
2022/10/02 02:37:03;;;;;;;26.20;5.95;;;14.70;99.90;;;;;;2092963;28;20036;-70
2022/10/02 02:38:13;;;;;;;19.33;5.18;;;14.80;99.90;;;;;;2092442;28;20184;-70
2022/10/02 02:39:21;;;;;;;29.40;5.78;;;14.80;99.90;;;;;;2090178;28;20298;-70
2022/10/02 02:40:29;;;;;;;21.65;4.68;;;14.80;99.90;;;;;;2090334;28;20059;-70
2022/10/02 02:41:39;;;;;;;28.98;6.28;;;14.80;99.90;;;;;;2092467;28;20019;-70
2022/10/02 02:42:44;;;;;;;25.30;5.75;;;14.80;99.90;;;;;;2093041;28;20091;-70
2022/10/02 02:43:53;;;;;;;25.15;5.80;;;14.80;99.90;;;;;;2090666;28;20667;-70
2022/10/02 02:45:02;;;;;;;32.45;6.45;;;14.80;99.90;;;;;;2091542;28;20052;-70
2022/10/02 02:46:10;;;;;;;32.13;6.07;;;14.80;99.90;;;;;;2092443;28;20481;-70
2022/10/02 02:47:27;;;;;;;29.40;6.28;;;14.90;99.90;;;;;;2092168;28;20103;-70
2022/10/02 02:48:51;;;;;;;24.67;5.22;;;14.80;99.90;;;;;;2092793;28;20056;-70
2022/10/02 02:50:00;;;;;;;27.30;5.72;;;14.80;99.90;;;;;;2091816;28;20031;-70
2022/10/02 02:51:15;;;;;;;27.93;5.53;;;14.90;99.90;;;;;;2090443;28;20031;-70
2022/10/02 02:52:21;;;;;;;27.05;6.10;;;14.80;99.90;;;;;;2091324;28;20270;-70
2022/10/02 02:53:28;;;;;;;23.85;5.00;;;14.80;99.90;;;;;;2090590;28;20090;-70
2022/10/02 02:54:37;;;;;;;27.42;5.85;;;14.90;99.90;;;;;;2091619;28;20025;-70
2022/10/02 02:55:58;;;;;;;19.88;5.22;;;14.90;99.90;;;;;;2090641;28;20036;-70
2022/10/02 02:57:00;;;;;;;23.10;5.10;;;14.90;99.90;;;;;;2092005;28;20503;-70
2022/10/02 02:58:09;;;;;;;23.58;6.07;;;14.90;99.90;;;;;;2090490;28;20054;-70
2022/10/02 02:59:12;;;;;;;27.85;6.82;;;14.90;99.90;;;;;;2093250;28;20021;-70
2022/10/02 03:00:15;;;;;;;23.27;5.32;;;15.00;99.90;;;;;;2091130;28;20103;-70
2022/10/02 03:01:16;;;;;;;22.05;5.03;;;15.00;99.90;;;;;;2092646;28;20013;-70
2022/10/02 03:02:16;;;;;;;24.85;5.32;;;15.00;99.90;;;;;;2092355;28;20024;-70
2022/10/02 03:03:17;;;;;;;30.13;6.13;;;15.00;99.90;;;;;;2091704;28;20021;-70
2022/10/02 03:04:17;;;;;;;22.73;6.38;;;15.00;99.90;;;;;;2091796;28;20021;-70
2022/10/02 03:05:18;;;;;;;22.23;5.75;;;15.00;99.90;;;;;;2092354;28;20024;-70
2022/10/02 03:06:48;;;;;;;24.80;5.88;;;15.00;99.90;;;;;;2091540;28;20097;-70
2022/10/02 03:07:55;;;;;;;29.77;7.43;;;15.00;99.90;;;;;;2090678;28;20147;-70
2022/10/02 03:08:56;;;;;;;22.85;5.63;;;15.00;99.90;;;;;;2091862;28;20049;-70
2022/10/02 03:10:09;;;;;;;22.88;5.45;;;15.00;99.90;;;;;;2091716;28;20528;-70
2022/10/02 03:11:28;;;;;;;25.08;5.53;;;15.00;99.90;;;;;;2091782;28;20059;-70
2022/10/02 03:12:43;;;;;;;23.50;5.85;;;15.00;99.90;;;;;;2091603;28;20036;-70
2022/10/02 03:14:00;;;;;;;29.23;5.65;;;15.00;99.90;;;;;;2090685;28;20056;-70
2022/10/02 03:15:14;;;;;;;26.42;5.32;;;15.00;99.90;;;;;;2091731;28;20028;-70
2022/10/02 03:16:42;;;;;;;22.65;5.30;;;15.00;99.90;;;;;;2091315;28;20067;-70
2022/10/02 03:17:52;;;;;;;26.95;5.85;;;15.00;99.90;;;;;;2092325;28;20098;-70
2022/10/02 03:19:22;;;;;;;29.65;6.65;;;15.00;99.90;;;;;;2092213;28;20064;-70
2022/10/02 03:21:04;;;;;;;26.15;6.28;;;15.00;99.90;;;;;;2090751;28;20027;-70
2022/10/02 03:22:19;;;;;;;22.70;5.95;;;15.00;99.90;;;;;;2090352;28;20025;-70
2022/10/02 03:23:33;;;;;;;22.63;5.43;;;15.00;99.90;;;;;;2090400;28;20044;-70
2022/10/02 03:25:12;;;;;;;26.70;6.25;;;15.00;99.90;;;;;;2090997;28;20024;-70
2022/10/02 03:26:35;;;;;;;28.67;5.47;;;15.00;99.90;;;;;;2084779;28;20057;-70
2022/10/02 03:27:47;;;;;;;22.85;5.07;;;15.00;99.90;;;;;;2091600;28;20099;-70
2022/10/02 03:28:55;;;;;;;23.58;5.28;;;15.00;99.90;;;;;;2091697;28;20070;-70
2022/10/02 03:30:04;;;;;;;27.90;6.55;;;15.00;99.90;;;;;;2093234;28;20087;-70
2022/10/02 03:31:08;;;;;;;25.92;6.50;;;15.00;99.90;;;;;;2092375;28;20035;-70
2022/10/02 03:32:11;;;;;;;30.35;6.22;;;15.00;99.90;;;;;;2090242;28;20163;-70
2022/10/02 03:33:14;;;;;;;23.83;5.75;;;15.00;99.90;;;;;;2091269;28;20027;-70
2022/10/02 03:34:16;;;;;;;22.25;5.55;;;15.00;99.90;;;;;;2089651;28;20397;-70
2022/10/02 03:35:17;;;;;;;34.90;6.72;;;15.00;99.90;;;;;;2091119;28;20063;-71
2022/10/02 03:36:19;;;;;;;23.45;5.70;;;15.00;99.90;;;;;;2093270;28;20041;-70
2022/10/02 03:37:21;;;;;;;24.85;5.97;;;15.00;99.90;;;;;;2092593;28;20112;-70
2022/10/02 03:38:23;;;;;;;30.20;6.85;;;15.00;99.90;;;;;;2092302;28;20074;-70
2022/10/02 03:39:24;;;;;;;22.40;5.43;;;15.00;99.90;;;;;;2090854;28;20150;-70
2022/10/02 03:40:26;;;;;;;18.25;5.85;;;15.00;99.90;;;;;;2091466;28;20082;-70
2022/10/02 03:41:26;;;;;;;25.85;6.30;;;15.00;99.90;;;;;;2091028;28;20032;-70
2022/10/02 03:42:30;;;;;;;27.98;7.35;;;15.00;99.90;;;;;;2091798;28;20051;-70
2022/10/02 03:43:31;;;;;;;28.27;5.85;;;15.00;99.90;;;;;;2090914;28;20021;-70
2022/10/02 03:44:31;;;;;;;33.92;7.28;;;15.00;99.90;;;;;;2091171;28;20028;-70
2022/10/02 03:45:32;;;;;;;29.15;6.30;;;15.10;99.90;;;;;;2091841;28;20094;-70
2022/10/02 03:46:33;;;;;;;25.88;5.93;;;15.00;99.90;;;;;;2090774;28;20104;-70
2022/10/02 03:47:33;;;;;;;28.52;6.78;;;15.10;99.90;;;;;;2091153;28;20129;-70
2022/10/02 03:48:34;;;;;;;24.23;6.85;;;15.10;99.90;;;;;;2091593;28;20086;-70
2022/10/02 03:49:34;;;;;;;28.70;7.40;;;15.10;99.90;;;;;;2089654;28;20372;-70
2022/10/02 03:50:35;;;;;;;25.33;7.07;;;15.10;99.90;;;;;;2091583;28;20028;-70
2022/10/02 03:51:35;;;;;;;29.58;7.53;;;15.10;99.90;;;;;;2091968;28;20741;-70
2022/10/02 03:52:36;;;;;;;26.52;7.00;;;15.10;99.90;;;;;;2090772;28;20028;-70
2022/10/02 03:53:38;;;;;;;29.17;6.97;;;15.10;99.90;;;;;;2092908;28;20028;-70
2022/10/02 03:54:38;;;;;;;26.77;7.85;;;15.10;99.90;;;;;;2090942;28;20021;-70
2022/10/02 03:55:46;;;;;;;31.70;7.60;;;15.10;99.90;;;;;;2091749;28;20029;-70
2022/10/02 03:57:00;;;;;;;32.83;7.22;;;15.10;99.90;;;;;;2090638;28;20124;-70
2022/10/02 03:58:08;;;;;;;31.83;7.13;;;15.10;99.90;;;;;;2092467;28;20366;-70
2022/10/02 03:59:17;;;;;;;33.85;7.47;;;15.10;99.90;;;;;;2090791;28;20033;-70
2022/10/02 04:00:22;;;;;;;29.98;7.07;;;15.10;99.90;;;;;;2092105;28;20034;-70
2022/10/02 04:01:28;;;;;;;24.88;7.03;;;15.10;99.90;;;;;;2090528;28;20112;-70
2022/10/02 04:02:38;;;;;;;35.65;7.72;;;15.10;99.90;;;;;;2092693;28;20036;-70
2022/10/02 04:03:51;;;;;;;33.05;8.50;;;15.10;99.90;;;;;;2091148;28;20055;-70
2022/10/02 04:05:10;;;;;;;32.13;7.10;;;15.10;99.90;;;;;;2091096;28;20029;-70
2022/10/02 04:06:49;;;;;;;30.42;8.52;;;15.10;99.90;;;;;;2092818;28;20052;-71
2022/10/02 04:08:01;;;;;;;29.85;8.35;;;15.10;99.90;;;;;;2092316;28;20477;-70
2022/10/02 04:09:09;;;;;;;27.45;7.35;;;15.10;99.90;;;;;;2090489;28;20111;-70
2022/10/02 04:10:12;;;;;;;25.25;7.22;;;15.10;99.90;;;;;;2094780;28;20017;-70
2022/10/02 04:11:31;;;;;;;32.15;8.35;;;15.10;99.90;;;;;;2094534;28;20029;-70
2022/10/02 04:12:36;;;;;;;37.75;8.52;;;15.10;99.90;;;;;;2093031;28;20546;-70
2022/10/02 04:13:47;;;;;;;35.38;7.65;;;15.10;99.90;;;;;;2091725;28;20496;-70
2022/10/02 04:15:07;;;;;;;29.35;7.03;;;15.10;99.90;;;;;;2092431;28;20020;-70
2022/10/02 04:16:17;;;;;;;25.58;6.75;;;15.10;99.90;;;;;;2092588;28;20108;-70
2022/10/02 04:17:20;;;;;;;23.63;5.78;;;15.10;99.90;;;;;;2094321;28;20056;-70
2022/10/02 04:18:32;;;;;;;32.35;7.57;;;15.10;99.90;;;;;;2095058;28;20029;-70
2022/10/02 04:19:48;;;;;;;25.77;6.07;;;15.20;99.90;;;;;;2091814;28;20054;-70
2022/10/02 04:21:01;;;;;;;31.95;7.15;;;15.20;99.90;;;;;;2094293;28;20066;-72
2022/10/02 04:22:12;;;;;;;23.70;6.05;;;15.20;99.90;;;;;;2092422;28;20039;-70
2022/10/02 04:23:18;;;;;;;32.15;6.97;;;15.10;99.90;;;;;;2091432;28;20017;-70
2022/10/02 04:24:32;;;;;;;33.75;7.32;;;15.10;99.90;;;;;;2092523;28;20368;-70
2022/10/02 04:25:38;;;;;;;26.30;6.85;;;15.20;99.90;;;;;;2091970;28;20141;-70
2022/10/02 04:26:54;;;;;;;29.30;7.22;;;15.20;99.90;;;;;;2092522;28;20021;-70
2022/10/02 04:28:06;;;;;;;30.30;6.78;;;15.20;99.90;;;;;;2094059;28;20113;-70
2022/10/02 04:29:17;;;;;;;26.95;6.82;;;15.20;99.90;;;;;;2091916;28;20053;-70
2022/10/02 04:30:19;;;;;;;25.88;6.63;;;15.20;99.90;;;;;;2091284;28;20131;-70
2022/10/02 04:31:19;;;;;;;29.70;6.32;;;15.20;99.90;;;;;;2093498;28;20032;-71
2022/10/02 04:32:29;;;;;;;27.85;6.45;;;15.20;99.90;;;;;;2092013;28;20025;-70
2022/10/02 04:33:31;;;;;;;27.88;6.32;;;15.20;99.90;;;;;;2093536;28;20644;-70
2022/10/02 04:34:31;;;;;;;28.20;7.18;;;15.20;99.90;;;;;;2092966;28;20021;-70
2022/10/02 04:35:52;;;;;;;33.22;6.80;;;15.20;99.90;;;;;;2092702;28;20024;-70
2022/10/02 04:37:14;;;;;;;28.55;7.05;;;15.20;99.90;;;;;;2092998;28;20081;-70
2022/10/02 04:38:36;;;;;;;25.08;6.65;;;15.20;99.90;;;;;;2092998;28;20108;-70
2022/10/02 04:40:12;;;;;;;26.20;5.80;;;15.20;99.90;;;;;;2094147;28;20492;-70
2022/10/02 04:41:16;;;;;;;28.33;6.75;;;15.10;99.90;;;;;;2084205;28;20131;-70
2022/10/02 04:42:33;;;;;;;27.50;6.22;;;15.10;99.90;;;;;;2092312;28;20024;-70
2022/10/02 04:44:07;;;;;;;32.90;6.38;;;15.10;99.90;;;;;;2091818;28;20013;-70
2022/10/02 04:45:26;;;;;;;23.98;5.85;;;15.20;99.90;;;;;;2092512;28;20025;-70
2022/10/02 04:46:45;;;;;;;24.30;6.30;;;15.10;99.90;;;;;;2093361;28;20025;-70
2022/10/02 04:48:06;;;;;;;22.30;5.78;;;15.10;99.90;;;;;;2092320;28;20075;-70
2022/10/02 04:49:45;;;;;;;28.63;6.00;;;15.10;99.90;;;;;;2093902;28;20380;-70
2022/10/02 04:51:27;;;;;;;28.60;5.73;;;15.10;99.90;;;;;;2093145;28;20437;-70
2022/10/02 04:52:55;;;;;;;22.23;6.20;;;15.10;99.90;;;;;;2094181;28;20262;-70
2022/10/02 04:54:16;;;;;;;22.73;5.72;;;15.10;99.90;;;;;;2092106;28;20032;-70
2022/10/02 04:55:28;;;;;;;24.50;5.68;;;15.20;99.90;;;;;;2092396;28;20480;-70
2022/10/02 04:57:12;;;;;;;26.80;6.35;;;15.10;99.90;;;;;;2092941;28;20056;-70
2022/10/02 04:59:02;;;;;;;23.95;5.93;;;15.10;99.90;;;;;;2099541;28;20089;-70
2022/10/02 05:00:09;;;;;;;29.33;6.17;;;15.10;99.90;;;;;;2094829;28;20587;-70
2022/10/02 05:01:27;;;;;;;23.60;6.45;;;15.10;99.90;;;;;;2092466;28;20033;-70
2022/10/02 05:03:03;;;;;;;26.08;6.22;;;15.10;99.90;;;;;;2091976;28;20021;-70
2022/10/02 05:05:00;;;;;;;22.30;5.93;;;15.10;99.90;;;;;;2093378;28;20036;-70
2022/10/02 05:06:21;;;;;;;20.48;5.53;;;15.10;99.90;;;;;;2089703;28;20025;-70
2022/10/02 05:07:37;;;;;;;24.45;5.95;;;15.10;99.90;;;;;;2091045;28;20064;-70
2022/10/02 05:08:44;;;;;;;23.27;5.00;;;15.10;99.90;;;;;;2101287;28;20020;-70
2022/10/02 05:10:20;;;;;;;18.90;5.40;;;15.10;99.90;;;;;;2102319;28;20857;-70
2022/10/02 05:11:41;;;;;;;27.08;6.22;;;15.10;99.90;;;;;;2077727;28;20155;-70
2022/10/02 05:13:04;;;;;;;20.30;4.97;;;15.10;99.90;;;;;;2093014;28;20070;-71
2022/10/02 05:14:13;;;;;;;23.58;5.57;;;15.10;99.90;;;;;;2093782;28;20112;-71
2022/10/02 05:15:44;;;;;;;26.60;6.57;;;15.10;99.90;;;;;;2090830;28;20020;-71
2022/10/02 05:17:19;;;;;;;22.00;5.25;;;15.00;99.90;;;;;;2093490;28;20332;-71
2022/10/02 05:18:44;;;;;;;18.70;5.45;;;15.00;99.90;;;;;;2092893;28;20032;-71
2022/10/02 05:20:02;;;;;;;20.48;4.97;;;15.00;99.90;;;;;;2092543;28;20059;-71
2022/10/02 05:21:12;;;;;;;16.13;4.13;;;15.00;99.90;;;;;;2092254;28;20388;-71
2022/10/02 05:22:30;;;;;;;19.60;4.88;;;15.00;99.90;;;;;;2092010;28;20029;-71
2022/10/02 05:23:48;;;;;;;23.55;5.45;;;15.00;99.90;;;;;;2091878;28;20021;-71
2022/10/02 05:24:55;;;;;;;19.70;5.15;;;15.00;99.90;;;;;;2094821;28;20020;-71
2022/10/02 05:26:16;;;;;;;22.15;5.30;;;15.00;99.90;;;;;;2095229;28;20025;-71
2022/10/02 05:27:20;;;;;;;19.05;4.25;;;15.00;99.90;;;;;;2091954;28;20027;-71
2022/10/02 05:28:56;;;;;;;15.25;5.00;;;15.10;99.90;;;;;;2091755;28;20021;-70
2022/10/02 05:30:23;;;;;;;17.63;4.63;;;15.10;99.90;;;;;;2091378;28;20028;-71
2022/10/02 05:31:32;;;;;;;13.50;4.38;;;15.00;99.90;;;;;;2092642;28;20045;-71
2022/10/02 05:32:53;;;;;;;20.03;4.93;;;15.10;99.90;;;;;;2092707;28;20093;-71
2022/10/02 05:34:00;;;;;;;21.02;5.38;;;15.00;99.90;;;;;;2090828;28;20874;-71
2022/10/02 05:35:34;;;;;;;15.82;4.60;;;15.00;99.90;;;;;;2093022;28;20028;-71
2022/10/02 05:36:38;;;;;;;18.38;4.50;;;15.00;99.90;;;;;;2093729;28;20098;-71
2022/10/02 05:37:55;;;;;;;17.35;4.43;;;15.00;99.90;;;;;;2092394;28;20472;-71
2022/10/02 05:39:04;;;;;;;15.90;4.25;;;15.10;99.90;;;;;;2092513;28;20031;-71
2022/10/02 05:40:12;;;;;;;11.88;3.80;;;15.10;99.90;;;;;;2092050;28;20027;-71
2022/10/02 05:41:21;;;;;;;14.32;4.07;;;15.10;99.90;;;;;;2093367;28;20058;-71
2022/10/02 05:42:25;;;;;;;18.45;5.18;;;15.10;99.90;;;;;;2095508;28;20103;-71
2022/10/02 05:43:48;;;;;;;12.07;4.50;;;15.10;99.90;;;;;;2093595;28;20104;-71
2022/10/02 05:45:10;;;;;;;16.33;4.18;;;15.10;99.90;;;;;;2092063;28;20048;-71
2022/10/02 05:46:17;;;;;;;13.23;3.90;;;15.10;99.90;;;;;;2092669;28;20072;-71
2022/10/02 05:47:30;;;;;;;12.65;4.10;;;15.10;99.90;;;;;;2092554;28;20020;-71
2022/10/02 05:48:45;;;;;;;15.23;3.75;;;15.10;99.90;;;;;;2090972;28;20020;-71
2022/10/02 05:49:54;;;;;;;14.02;3.72;;;15.10;99.90;;;;;;2092047;28;20779;-71
2022/10/02 05:51:01;;;;;;;14.43;4.32;;;15.10;99.90;;;;;;2092054;28;20040;-71
2022/10/02 05:52:05;;;;;;;11.52;3.75;;;15.10;99.90;;;;;;2093327;28;20028;-71
2022/10/02 05:53:36;;;;;;;8.82;3.47;;;15.10;99.90;;;;;;2092570;28;20442;-71
2022/10/02 05:55:14;;;;;;;14.15;4.03;;;15.10;99.90;;;;;;2092891;28;20119;-71
2022/10/02 05:56:21;;;;;;;12.13;3.30;;;15.10;99.90;;;;;;2091482;28;20039;-71
2022/10/02 05:57:30;;;;;;;10.93;3.63;;;15.10;99.90;;;;;;2091768;28;20032;-71
2022/10/02 05:58:45;;;;;;;12.90;4.07;;;15.10;99.90;;;;;;2090923;28;20028;-70
2022/10/02 05:59:57;;;;;;;13.45;3.78;;;15.10;99.90;;;;;;2087886;28;20087;-71
2022/10/02 06:01:04;;;;;;;12.77;3.63;;;15.10;99.90;;;;;;2094174;28;20032;-71
2022/10/02 06:02:33;;;;;;;13.18;3.35;;;15.10;99.90;;;;;;2091637;28;20021;-71
2022/10/02 06:03:43;;;;;;;11.80;3.85;;;15.10;99.90;;;;;;2090965;28;20041;-71
2022/10/02 06:04:53;;;;;;;11.30;3.78;;;15.10;99.90;;;;;;2094643;28;20996;-71
2022/10/02 06:06:15;;;;;;;13.52;4.07;;;15.10;99.90;;;;;;2092871;28;20020;-71
2022/10/02 06:07:17;;;;;;;13.10;3.85;;;15.10;99.90;;;;;;2091907;28;20036;-71
2022/10/02 06:08:40;;;;;;;15.00;4.07;;;15.10;99.90;;;;;;2093093;28;20423;-71
2022/10/02 06:09:52;;;;;;;16.85;4.00;;;15.10;99.90;;;;;;2093408;28;20051;-71
2022/10/02 06:10:58;;;;;;;17.38;4.25;;;15.10;99.90;;;;;;2094527;28;20063;-71
2022/10/02 06:12:05;;;;;;;11.75;4.10;;;15.10;99.90;;;;;;2092944;28;20579;-71
2022/10/02 06:13:29;;;;;;;13.43;3.90;;;15.10;99.90;;;;;;2099947;28;20050;-71